Aérodrome :
LOGIN :

S'inscrire | Disclaimer

   EN    FR    IT 

 










Légende :    VFR   VFR Marginal   IFR   IFR Intensif   IFR Très Intensif
Visi : 
Plafond : 
>= 8 km
>= 3000ft
5 à 8 km
1000 à 3000 ft
1500m à 5 km
500 à 1000 ft
800 à 1500m
200 à 500 ft
< 800m
< 200 ft
Symboles :   Orages  Brouillard  Fortes neiges  Fortes précipitations  Vent > 20 kt
SIGMETs :   Divers  Orages  Givrage  Turbulence  Onde Orograph.  Cendres Volcan.







- Altitude de l'aérodrome : 436 ft
- Code IATA : BTS


LZIB - Bratislava

DERNIER METAR :
  • 191300Z 09010KT 060V120 9999 FEW031 SCT091 21/14 Q1005 NOSIG

METARs EXPIRÉS :
  • 191230Z 10011KT 9999 FEW031 20/13 Q1005 NOSIG
  • 191200Z 13010KT 090V150 9999 FEW030 20/12 Q1005 NOSIG
  • 191130Z 09005KT 040V150 9999 FEW022 SCT090 21/14 Q1005 NOSIG
  • 191100Z 11007KT 9999 FEW022 SCT065 19/14 Q1006 NOSIG
  • 191030Z 11004KT 080V160 9999 FEW022 SCT045 20/14 Q1006 NOSIG

TAF TAF LZIB
Valide du 19 à 12h jusqu'au 20 à 12h UTC


191100Z 1912/2012 12010KT 9999 SCT035 BKN090
PROB40
TEMPO 1912/1917 5000 TSRA SCT030CB BKN040
BECMG 1916/1918 05008KT
BECMG 1921/1923 7000 -RA SCT012 FEW030TCU BKN040
TEMPO 1922/2004 10012KT 4000 TSRA BKN012 SCT030CB
TEMPO 2006/2012 16010KT 6000 SHRA
PROB40
TEMPO 2009/2012 TSRA BKN015 SCT030CB
Pas de NOTAMs connus pour ce terrain.



MET'MAP, la Météo Aéronautique d'un coup d'oeil ! - Copyright ORBIFLY Décembre 2007 - Disclaimer

ORBIFLY MET'MAP TEAM :

Programmation & Développement : Alexandra Zaïnal
Conception & Développement : Baudouin d'Aumeries
Co-Programmation & Développement : Marc-Olivier Méhu
Soutien technique & logistique : Manuel Goepfert

Contact : metmap@orbifly.com




SOURCES & CREDITS :

   NOAA